This is the latest recevied weather packets stored in our database for station/object KE9DBJ. If no packets are shown the sender has not sent any weather packets the latest 10 day(s).
| Time | Temp. | Humidity | Pressure | Rain* | Wind** | Luminosity | Snow |
|---|---|---|---|---|---|---|---|
| 1777149921 | 25° C | 41% | 1009.8 hPa | 0 mm | - | - | - |
| 1777148719 | 25° C | 42% | 1010 hPa | 0 mm | - | - | - |
| 1777140928 | 24.44° C | 49% | 1010.7 hPa | 0 mm | - | - | - |
| 1777139145 | 24.44° C | 51% | 1011 hPa | 0 mm | - | - | - |
| 1777137916 | 23.33° C | 55% | 1011.1 hPa | 0 mm | - | - | - |
| 1777136726 | 23.33° C | 57% | 1011.3 hPa | 0 mm | - | - | - |
| 1777131929 | 20° C | 74% | 1011.7 hPa | 0.25 mm | - | - | - |
| 1777128322 | 18.89° C | 82% | 1011.5 hPa | 0 mm | - | - | - |
| 1777122950 | 17.78° C | 91% | 1011 hPa | 0 mm | - | - | - |
| 1777116317 | 14.44° C | 99% | 1010.2 hPa | 0 mm | - | - | - |
| 1777111552 | 12.78° C | 99% | 1009.3 hPa | 0 mm | - | - | - |
| 1777109728 | 12.78° C | 99% | 1009.3 hPa | 0 mm | - | - | - |
| 1777103744 | 13.33° C | 99% | 1008.9 hPa | 0 mm | - | - | - |
| 1777094724 | 15.56° C | 99% | 1008.9 hPa | 0 mm | - | - | - |
| 1777083327 | 16.67° C | 99% | 1009.2 hPa | 1.78 mm | - | - | - |
| 1777082771 | 16.67° C | 99% | 1009.2 hPa | 2.79 mm | - | - | - |
| 1777080927 | 16.67° C | 99% | 1008.8 hPa | 5.33 mm | - | - | - |
| 1777077341 | 17.22° C | 96% | 1008.2 hPa | 9.91 mm | - | - | - |
| 1777074018 | 20° C | 89% | 1006.6 hPa | 0 mm | - | - | - |
| 1777070417 | 20.56° C | 85% | 1006.1 hPa | 0 mm | - | - | - |
| 1777069821 | 20.56° C | 86% | 1006.2 hPa | 0 mm | - | - | - |
| 1777069225 | 21.11° C | 86% | 1006.2 hPa | 0.25 mm | - | - | - |
| 1777068629 | 21.11° C | 82% | 1006.4 hPa | 0.25 mm | - | - | - |
| 1777065615 | 25.56° C | 51% | 1006.2 hPa | 0 mm | - | - | - |
| 1777063843 | 26.67° C | 50% | 1006.4 hPa | 0 mm | - | - | - |
* Rain latest hour (hover to see other rain measurements)
** Current wind speed in m/s (hover to see current wind gust speed)